Time;durP1;ratioP1;P1;durP2;ratioP2;P2;SDS_P1;SDS_P2;PMS_P1;PMS_P2;Temp;Humidity;BMP_temperature;BMP_pressure;BME280_temperature;BME280_humidity;BME280_pressure;Samples;Min_cycle;Max_cycle;Signal;HPM_P1;HPM_P2
2023/12/11 02:43:41;;;;;;;26.30;9.90;;;;;;;3.37;100.00;97892.91;107005;1311;545888;-52
2023/12/11 02:46:06;;;;;;;27.80;9.50;;;;;;;3.33;100.00;97888.41;107444;1312;23104;-49
2023/12/11 02:48:32;;;;;;;20.80;9.40;;;;;;;3.36;100.00;97880.33;107423;1312;22327;-52
2023/12/11 02:50:57;;;;;;;23.70;9.90;;;;;;;3.38;100.00;97871.89;107459;1312;22436;-53
2023/12/11 02:53:23;;;;;;;26.30;9.00;;;;;;;3.36;100.00;97860.05;107439;1312;22429;-53
2023/12/11 02:55:48;;;;;;;27.10;9.30;;;;;;;3.35;100.00;97854.02;107455;1312;22261;-53
2023/12/11 02:58:14;;;;;;;22.40;9.70;;;;;;;3.35;100.00;97849.70;107536;1310;136360;-52
2023/12/11 03:00:39;;;;;;;23.50;10.30;;;;;;;3.37;100.00;97840.75;107681;1310;23099;-52
2023/12/11 03:03:07;;;;;;;26.90;9.50;;;;;;;3.39;100.00;97837.91;107652;1310;23127;-52
2023/12/11 03:05:33;;;;;;;18.20;8.80;;;;;;;3.36;100.00;97831.98;107665;1310;22430;-54
2023/12/11 03:07:58;;;;;;;24.40;9.40;;;;;;;3.38;100.00;97831.02;107676;1309;22242;-50
2023/12/11 03:10:24;;;;;;;20.20;9.80;;;;;;;3.39;100.00;97824.89;107699;1310;23302;-52
2023/12/11 03:12:49;;;;;;;23.20;9.40;;;;;;;3.31;100.00;97826.34;107688;1310;22132;-48
2023/12/11 03:15:15;;;;;;;20.30;9.10;;;;;;;3.35;100.00;97824.91;107691;1310;23215;-48
2023/12/11 03:17:40;;;;;;;22.40;10.40;;;;;;;3.36;100.00;97825.89;107658;1310;22406;-52
2023/12/11 03:20:09;;;;;;;25.30;9.70;;;;;;;3.40;100.00;97823.63;107698;1309;22264;-52
2023/12/11 03:22:34;;;;;;;26.20;10.40;;;;;;;3.41;100.00;97825.16;107676;1310;23016;-53
2023/12/11 03:24:59;;;;;;;24.20;10.50;;;;;;;3.43;100.00;97824.37;107657;1310;22449;-48
2023/12/11 03:27:25;;;;;;;23.30;10.30;;;;;;;3.44;100.00;97821.71;107678;1310;22495;-53
2023/12/11 03:29:51;;;;;;;19.80;8.90;;;;;;;3.43;100.00;97819.33;107674;1310;22441;-52
2023/12/11 03:32:16;;;;;;;24.50;10.10;;;;;;;3.45;100.00;97822.35;107664;1310;22433;-51
2023/12/11 03:34:42;;;;;;;32.80;10.80;;;;;;;3.46;100.00;97819.18;107669;1310;23054;-53
2023/12/11 03:37:08;;;;;;;29.00;11.60;;;;;;;3.46;100.00;97817.98;107674;1310;22244;-52
2023/12/11 03:39:34;;;;;;;29.60;9.90;;;;;;;3.45;100.00;97822.33;107675;1309;22245;-51
2023/12/11 03:41:59;;;;;;;23.70;9.10;;;;;;;3.44;100.00;97821.15;107678;1310;22227;-52
2023/12/11 03:44:24;;;;;;;25.00;9.30;;;;;;;3.44;100.00;97821.71;107698;1310;22356;-53
2023/12/11 03:46:50;;;;;;;18.00;8.90;;;;;;;3.42;100.00;97816.08;107778;1308;22495;-51
2023/12/11 03:49:16;;;;;;;26.20;9.60;;;;;;;3.41;100.00;97798.27;107824;1308;22454;-52
2023/12/11 03:51:45;;;;;;;25.10;9.90;;;;;;;3.42;100.00;97795.14;107794;1308;22235;-49
2023/12/11 03:54:10;;;;;;;22.30;8.90;;;;;;;3.41;100.00;97816.30;107798;1308;23508;-49
2023/12/11 03:56:38;;;;;;;22.30;9.30;;;;;;;3.41;100.00;97821.50;107798;1308;22502;-48
2023/12/11 03:59:04;;;;;;;23.90;9.50;;;;;;;3.40;100.00;97822.58;107800;1308;22227;-48
2023/12/11 04:01:29;;;;;;;17.60;8.30;;;;;;;3.41;100.00;97824.98;107818;1308;22553;-49
2023/12/11 04:03:54;;;;;;;22.60;9.20;;;;;;;3.38;100.00;97826.85;107820;1308;22189;-52
2023/12/11 04:06:20;;;;;;;28.60;9.70;;;;;;;3.38;100.00;97820.80;107832;1308;22239;-53
2023/12/11 04:08:45;;;;;;;22.90;9.30;;;;;;;3.39;100.00;97819.02;107805;1308;22233;-52
2023/12/11 04:11:12;;;;;;;22.00;8.70;;;;;;;3.39;100.00;97812.23;107791;1308;22790;-52
2023/12/11 04:13:37;;;;;;;19.90;8.90;;;;;;;3.40;100.00;97806.65;107821;1308;23001;-52
2023/12/11 04:16:03;;;;;;;17.70;8.30;;;;;;;3.40;100.00;97811.14;107794;1308;23066;-49
2023/12/11 04:18:32;;;;;;;24.40;9.10;;;;;;;3.41;100.00;97814.02;107818;1308;22292;-48
2023/12/11 04:20:58;;;;;;;22.80;9.40;;;;;;;3.38;100.00;97818.71;107797;1308;22266;-53
2023/12/11 04:23:24;;;;;;;23.20;8.30;;;;;;;3.38;100.00;97820.28;107813;1308;23211;-52
2023/12/11 04:25:50;;;;;;;19.30;8.90;;;;;;;3.39;100.00;97823.70;107823;1308;22396;-52
2023/12/11 04:28:16;;;;;;;20.80;8.10;;;;;;;3.42;100.00;97818.85;107840;1308;22244;-52
2023/12/11 04:30:41;;;;;;;18.50;8.20;;;;;;;3.44;100.00;97813.90;107794;1308;22468;-50
2023/12/11 04:33:07;;;;;;;22.50;7.50;;;;;;;3.42;100.00;97815.93;107820;1308;23208;-52
2023/12/11 04:35:32;;;;;;;19.40;8.00;;;;;;;3.39;100.00;97813.98;107800;1308;22268;-53
2023/12/11 04:37:57;;;;;;;23.60;8.40;;;;;;;3.41;100.00;97811.29;107796;1308;22413;-52
2023/12/11 04:40:23;;;;;;;21.70;7.30;;;;;;;3.43;100.00;97804.61;107823;1308;22244;-50
2023/12/11 04:42:48;;;;;;;15.50;6.70;;;;;;;3.42;100.00;97802.02;107781;1308;22442;-53
2023/12/11 04:45:14;;;;;;;22.60;7.70;;;;;;;3.42;100.00;97794.92;107790;1308;22340;-51
2023/12/11 04:47:39;;;;;;;20.30;7.10;;;;;;;3.42;100.00;97793.20;107798;1308;22283;-53
2023/12/11 04:50:05;;;;;;;22.90;7.30;;;;;;;3.44;100.00;97789.46;107800;1308;24318;-54
2023/12/11 04:52:30;;;;;;;22.40;6.80;;;;;;;3.43;100.00;97778.08;107815;1302;22412;-53
2023/12/11 04:54:57;;;;;;;19.00;7.10;;;;;;;3.43;100.00;97775.82;107797;1308;22237;-49
2023/12/11 04:57:22;;;;;;;19.20;7.50;;;;;;;3.45;100.00;97775.24;107803;1308;22197;-48
2023/12/11 04:59:48;;;;;;;21.50;8.60;;;;;;;3.46;100.00;97771.16;107792;1308;22433;-52
2023/12/11 05:02:13;;;;;;;21.10;7.60;;;;;;;3.41;100.00;97772.80;107779;1308;22601;-52
2023/12/11 05:04:39;;;;;;;24.30;7.90;;;;;;;3.41;100.00;97775.73;107797;1308;22243;-52
2023/12/11 05:07:06;;;;;;;18.20;7.00;;;;;;;3.44;100.00;97774.22;107801;1308;22222;-53
2023/12/11 05:09:31;;;;;;;19.60;8.20;;;;;;;3.41;100.00;97768.82;107800;1308;22249;-51
2023/12/11 05:11:56;;;;;;;19.80;7.30;;;;;;;3.40;100.00;97755.36;107801;1308;22313;-53
2023/12/11 05:14:22;;;;;;;15.80;6.70;;;;;;;3.40;100.00;97748.96;107793;1308;22252;-51
2023/12/11 05:16:47;;;;;;;17.00;7.20;;;;;;;3.43;100.00;97745.88;107809;1308;22396;-51
2023/12/11 05:19:13;;;;;;;20.00;7.00;;;;;;;3.45;100.00;97745.24;107773;1308;22425;-53
2023/12/11 05:21:43;;;;;;;24.00;7.30;;;;;;;3.45;100.00;97744.19;107783;1308;22220;-53
2023/12/11 05:24:08;;;;;;;16.90;7.00;;;;;;;3.46;100.00;97734.27;107778;1308;22247;-53
2023/12/11 05:26:34;;;;;;;15.10;6.80;;;;;;;3.49;100.00;97728.63;107773;1308;22441;-53
2023/12/11 05:29:00;;;;;;;16.10;6.60;;;;;;;3.49;100.00;97726.16;107807;1308;22232;-52
2023/12/11 05:31:25;;;;;;;17.60;7.10;;;;;;;3.48;100.00;97724.64;107811;1308;22299;-50
2023/12/11 05:33:51;;;;;;;15.20;6.00;;;;;;;3.48;100.00;97721.57;107807;1308;22985;-53
2023/12/11 05:36:16;;;;;;;15.10;6.80;;;;;;;3.49;100.00;97717.67;107306;1308;22992;-54
2023/12/11 05:38:42;;;;;;;20.50;6.20;;;;;;;3.49;100.00;97715.47;107832;1308;22244;-52
2023/12/11 05:41:07;;;;;;;14.50;6.30;;;;;;;3.46;100.00;97721.80;107795;1308;22236;-53
2023/12/11 05:43:33;;;;;;;16.70;6.50;;;;;;;3.49;100.00;97726.16;107826;1308;22442;-53
2023/12/11 05:45:58;;;;;;;16.70;6.80;;;;;;;3.52;100.00;97727.73;107817;1308;23014;-51
2023/12/11 05:48:23;;;;;;;20.30;6.00;;;;;;;3.52;100.00;97724.98;107830;1308;22429;-53
2023/12/11 05:50:49;;;;;;;14.90;5.60;;;;;;;3.50;100.00;97721.09;107837;1308;22506;-53
2023/12/11 05:53:14;;;;;;;13.80;5.60;;;;;;;3.49;100.00;97721.65;107823;1308;22439;-53
2023/12/11 05:55:40;;;;;;;19.50;5.90;;;;;;;3.50;100.00;97719.34;107807;1308;22475;-52
2023/12/11 05:58:05;;;;;;;17.30;5.30;;;;;;;3.46;100.00;97713.83;107793;1308;22388;-52
2023/12/11 06:00:30;;;;;;;13.70;5.90;;;;;;;3.48;100.00;97707.84;107847;1308;22969;-52
2023/12/11 06:02:56;;;;;;;18.90;5.50;;;;;;;3.47;100.00;97706.16;107857;1301;22282;-53
2023/12/11 06:05:21;;;;;;;22.40;6.20;;;;;;;3.47;100.00;97703.95;107824;1308;22910;-51
2023/12/11 06:07:47;;;;;;;15.50;5.80;;;;;;;3.49;100.00;97700.40;107836;1308;23067;-50
2023/12/11 06:10:12;;;;;;;17.10;5.90;;;;;;;3.49;100.00;97695.66;107827;1308;22307;-49
2023/12/11 06:12:37;;;;;;;16.20;5.70;;;;;;;3.50;100.00;97694.25;107798;1308;22568;-50
2023/12/11 06:15:03;;;;;;;16.60;6.30;;;;;;;3.52;100.00;97684.59;107837;1308;22217;-51
2023/12/11 06:17:29;;;;;;;18.00;6.00;;;;;;;3.52;100.00;97676.81;107831;1308;22402;-50
2023/12/11 06:19:54;;;;;;;14.60;5.40;;;;;;;3.52;100.00;97673.54;107821;1308;23199;-50
2023/12/11 06:22:19;;;;;;;12.30;5.50;;;;;;;3.52;100.00;97673.20;107834;1308;23030;-51
2023/12/11 06:24:45;;;;;;;18.60;4.90;;;;;;;3.52;100.00;97670.38;107806;1308;22279;-52
2023/12/11 06:27:11;;;;;;;13.00;5.00;;;;;;;3.55;100.00;97671.45;107824;1308;22421;-52
2023/12/11 06:29:38;;;;;;;15.50;5.20;;;;;;;3.52;100.00;97664.52;107831;1308;22469;-54
2023/12/11 06:32:04;;;;;;;15.20;5.50;;;;;;;3.51;100.00;97659.53;107836;1308;23022;-53
2023/12/11 06:34:30;;;;;;;14.60;5.60;;;;;;;3.50;100.00;97657.72;107826;1308;22253;-53
2023/12/11 06:36:55;;;;;;;13.00;5.00;;;;;;;3.51;100.00;97658.34;107808;1308;22237;-52
2023/12/11 06:39:21;;;;;;;14.40;5.30;;;;;;;3.54;100.00;97657.66;107840;1308;22438;-50
2023/12/11 06:41:46;;;;;;;13.80;5.90;;;;;;;3.53;100.00;97655.80;107832;1308;22596;-53
2023/12/11 06:44:12;;;;;;;13.60;5.30;;;;;;;3.51;100.00;97655.54;107846;1308;22293;-53
2023/12/11 06:46:38;;;;;;;14.70;5.30;;;;;;;3.52;100.00;97657.08;107819;1308;22670;-53
2023/12/11 06:49:03;;;;;;;15.90;5.90;;;;;;;3.55;100.00;97654.48;107858;1308;22316;-50
2023/12/11 06:51:29;;;;;;;23.90;6.90;;;;;;;3.55;100.00;97651.36;107801;1308;22239;-51
2023/12/11 06:54:00;;;;;;;21.70;6.60;;;;;;;3.52;100.00;97645.95;107857;1308;22292;-51
2023/12/11 06:56:27;;;;;;;15.90;5.60;;;;;;;3.52;100.00;97644.79;107850;1308;22485;-52
2023/12/11 06:58:53;;;;;;;15.30;6.90;;;;;;;3.52;100.00;97645.48;107827;1308;22320;-52
2023/12/11 07:01:18;;;;;;;19.80;6.20;;;;;;;3.52;100.00;97644.95;107843;1308;22271;-53
2023/12/11 07:03:48;;;;;;;19.40;6.60;;;;;;;3.47;100.00;97639.64;107831;1308;22234;-53
2023/12/11 07:06:17;;;;;;;17.90;6.20;;;;;;;3.48;100.00;97636.61;107840;1308;22890;-53
2023/12/11 07:08:42;;;;;;;14.20;6.50;;;;;;;3.49;100.00;97634.02;107831;1306;22215;-54
2023/12/11 07:11:08;;;;;;;21.00;6.60;;;;;;;3.51;100.00;97632.35;107806;1308;22248;-53
2023/12/11 07:13:33;;;;;;;15.60;6.30;;;;;;;3.47;100.00;97629.26;107864;1308;22508;-53
2023/12/11 07:15:58;;;;;;;21.10;6.70;;;;;;;3.51;100.00;97630.11;107818;1308;22686;-53
2023/12/11 07:18:24;;;;;;;16.60;6.40;;;;;;;3.54;100.00;97626.64;107800;1308;22239;-53
2023/12/11 07:20:49;;;;;;;14.20;6.70;;;;;;;3.55;100.00;97625.02;107823;1308;22300;-51
2023/12/11 07:23:15;;;;;;;20.10;6.10;;;;;;;3.57;100.00;97630.08;107812;1308;22912;-53
2023/12/11 07:25:40;;;;;;;19.50;6.40;;;;;;;3.60;100.00;97633.60;107828;1308;22435;-52
2023/12/11 07:28:05;;;;;;;20.20;6.70;;;;;;;3.62;100.00;97637.63;107830;1308;22349;-53
2023/12/11 07:30:31;;;;;;;14.50;6.00;;;;;;;3.64;100.00;97641.70;107801;1308;23163;-53
2023/12/11 07:32:57;;;;;;;16.10;6.70;;;;;;;3.63;100.00;97641.23;107842;1308;22241;-53
2023/12/11 07:35:24;;;;;;;19.90;7.40;;;;;;;3.59;100.00;97641.26;107823;1308;22246;-52
2023/12/11 07:37:50;;;;;;;16.50;6.40;;;;;;;3.60;100.00;97638.42;107848;1308;22298;-51
2023/12/11 07:40:16;;;;;;;16.80;7.40;;;;;;;3.60;100.00;97632.20;107825;1308;22480;-52
2023/12/11 07:42:42;;;;;;;19.30;6.80;;;;;;;3.60;100.00;97629.92;107829;1308;22324;-53
2023/12/11 07:45:08;;;;;;;15.90;6.50;;;;;;;3.59;100.00;97628.77;107850;1308;22237;-52
2023/12/11 07:47:34;;;;;;;19.40;7.80;;;;;;;3.56;100.00;97622.02;107817;1308;22235;-50
2023/12/11 07:50:02;;;;;;;23.50;8.60;;;;;;;3.58;100.00;97614.11;107813;1308;22241;-53
2023/12/11 07:52:29;;;;;;;22.70;8.10;;;;;;;3.51;100.00;97617.95;107860;1308;22413;-54
2023/12/11 07:54:55;;;;;;;17.10;7.70;;;;;;;3.54;100.00;97608.42;107839;1308;22262;-52
2023/12/11 07:57:20;;;;;;;21.80;8.30;;;;;;;3.58;100.00;97600.77;107844;1308;22226;-49
2023/12/11 07:59:46;;;;;;;22.00;7.80;;;;;;;3.54;100.00;97602.58;107838;1308;23438;-50
2023/12/11 08:02:11;;;;;;;18.40;7.50;;;;;;;3.54;100.00;97604.77;107871;1308;22261;-52
2023/12/11 08:04:38;;;;;;;16.00;6.90;;;;;;;3.53;100.00;97601.90;107824;1308;22218;-50
2023/12/11 08:07:04;;;;;;;19.90;7.80;;;;;;;3.54;100.00;97600.98;107857;1308;22439;-51
2023/12/11 08:09:29;;;;;;;16.20;6.40;;;;;;;3.54;100.00;97598.89;107833;1308;22332;-50
2023/12/11 08:11:55;;;;;;;16.90;6.40;;;;;;;3.59;100.00;97603.82;107845;1308;22892;-49
2023/12/11 08:14:20;;;;;;;26.20;9.00;;;;;;;3.62;100.00;97599.01;107817;1308;22208;-49
2023/12/11 08:16:46;;;;;;;18.70;8.40;;;;;;;3.66;100.00;97596.52;107832;1308;22437;-53
2023/12/11 08:19:12;;;;;;;16.50;8.20;;;;;;;3.69;100.00;97604.14;107813;1308;22309;-53
2023/12/11 08:21:38;;;;;;;15.80;7.20;;;;;;;3.70;100.00;97599.06;107825;1308;22239;-54
2023/12/11 08:24:03;;;;;;;18.10;7.30;;;;;;;3.73;100.00;97597.71;107828;1308;22411;-53
2023/12/11 08:26:29;;;;;;;22.50;8.00;;;;;;;3.76;100.00;97592.69;107817;1308;22245;-50
2023/12/11 08:28:54;;;;;;;17.70;6.90;;;;;;;3.75;100.00;97588.38;107807;1308;22412;-53
2023/12/11 08:31:20;;;;;;;22.40;8.20;;;;;;;3.79;100.00;97593.37;107839;1308;22235;-53
2023/12/11 08:33:46;;;;;;;9.30;5.50;;;;;;;3.81;100.00;97597.40;107802;1308;22247;-53
2023/12/11 08:36:11;;;;;;;14.40;5.70;;;;;;;3.84;100.00;97592.02;107817;1308;22210;-51
2023/12/11 08:38:37;;;;;;;24.80;7.20;;;;;;;3.87;100.00;97588.57;107803;1308;22245;-52
2023/12/11 08:41:02;;;;;;;15.10;5.60;;;;;;;3.82;100.00;97591.46;107825;1308;22601;-54
2023/12/11 08:43:28;;;;;;;11.10;5.60;;;;;;;3.87;100.00;97600.74;107811;1308;22230;-52
2023/12/11 08:45:53;;;;;;;9.40;4.90;;;;;;;3.92;100.00;97601.85;107798;1308;22369;-50
2023/12/11 08:48:19;;;;;;;18.20;7.80;;;;;;;3.99;100.00;97597.66;107802;1308;22336;-53
2023/12/11 08:50:44;;;;;;;13.20;6.40;;;;;;;4.02;100.00;97592.29;107850;1308;22226;-53
2023/12/11 08:53:10;;;;;;;13.20;5.90;;;;;;;4.04;100.00;97598.42;107836;1308;22958;-52
2023/12/11 08:55:35;;;;;;;12.20;5.00;;;;;;;4.08;100.00;97599.58;107839;1308;22932;-52
2023/12/11 08:58:01;;;;;;;11.80;5.10;;;;;;;4.10;100.00;97587.53;107822;1308;22418;-53
2023/12/11 09:00:28;;;;;;;9.60;4.60;;;;;;;4.14;100.00;97592.14;107807;1308;22237;-49
2023/12/11 09:02:53;;;;;;;10.90;5.20;;;;;;;4.17;100.00;97600.96;107821;1308;22439;-52
2023/12/11 09:05:19;;;;;;;10.50;4.60;;;;;;;4.21;100.00;97606.16;107831;1308;22239;-50
2023/12/11 09:07:45;;;;;;;15.10;5.80;;;;;;;4.25;100.00;97599.34;107820;1308;22990;-51
2023/12/11 09:10:11;;;;;;;9.70;5.50;;;;;;;4.30;100.00;97603.39;107807;1308;22211;-52
2023/12/11 09:12:38;;;;;;;16.10;5.60;;;;;;;4.33;100.00;97602.69;107830;1308;22219;-53
2023/12/11 09:15:04;;;;;;;8.90;4.80;;;;;;;4.38;100.00;97602.93;107810;1308;22234;-53
2023/12/11 09:17:29;;;;;;;13.50;4.80;;;;;;;4.42;100.00;97603.02;107663;1308;22429;-53
2023/12/11 09:19:55;;;;;;;12.00;4.60;;;;;;;4.43;100.00;97603.88;107850;1308;22316;-54
2023/12/11 09:22:20;;;;;;;7.00;3.90;;;;;;;4.45;100.00;97604.45;107839;1308;23291;-53
2023/12/11 09:24:46;;;;;;;9.40;4.50;;;;;;;4.46;100.00;97602.30;107838;1308;22231;-51
2023/12/11 09:27:12;;;;;;;12.50;4.80;;;;;;;4.49;100.00;97595.89;107815;1308;23113;-53
2023/12/11 09:29:37;;;;;;;12.60;5.40;;;;;;;4.54;100.00;97593.19;107664;1308;22262;-49
2023/12/11 09:32:03;;;;;;;16.70;5.20;;;;;;;4.58;100.00;97596.05;107797;1308;22244;-52
2023/12/11 09:34:28;;;;;;;11.90;4.90;;;;;;;4.55;100.00;97593.27;107808;1308;22236;-51
2023/12/11 09:36:54;;;;;;;9.10;3.90;;;;;;;4.61;100.00;97588.41;107832;1308;22317;-55
2023/12/11 09:39:20;;;;;;;8.90;4.40;;;;;;;4.68;100.00;97587.69;107827;1308;22269;-52
2023/12/11 09:41:46;;;;;;;11.30;4.50;;;;;;;4.70;100.00;97587.54;107810;1308;22423;-53
2023/12/11 09:44:12;;;;;;;10.40;4.30;;;;;;;4.73;100.00;97585.30;107816;1308;22226;-53
2023/12/11 09:46:44;;;;;;;11.30;4.80;;;;;;;4.75;100.00;97585.47;107817;1308;23020;-49
2023/12/11 09:49:10;;;;;;;11.30;5.00;;;;;;;4.83;100.00;97580.00;107821;1308;22536;-53
2023/12/11 09:51:36;;;;;;;8.00;3.90;;;;;;;4.88;100.00;97574.69;107806;1304;22234;-51
2023/12/11 09:54:03;;;;;;;10.60;4.90;;;;;;;4.91;100.00;97575.88;107805;1298;22462;-52
2023/12/11 09:56:30;;;;;;;12.10;4.20;;;;;;;4.87;100.00;97569.50;107833;1308;23222;-49
2023/12/11 09:58:56;;;;;;;;;;;;;;;4.90;100.00;97568.66;107845;1308;22462;-52
2023/12/11 10:01:22;;;;;;;7.10;3.90;;;;;;;4.89;100.00;97573.05;107799;1308;22428;-51
2023/12/11 10:03:48;;;;;;;13.20;4.30;;;;;;;4.91;100.00;97571.54;107702;1295;22340;-51
2023/12/11 10:06:13;;;;;;;8.70;4.60;;;;;;;4.92;100.00;97572.51;107681;1309;22207;-53
2023/12/11 10:08:43;;;;;;;9.10;3.90;;;;;;;4.93;100.00;97573.83;107665;1309;22450;-52
2023/12/11 10:11:17;;;;;;;9.10;4.00;;;;;;;4.93;100.00;97574.88;107676;1309;22236;-51
2023/12/11 10:13:43;;;;;;;10.20;4.00;;;;;;;4.96;100.00;97567.77;107690;1295;22237;-50
2023/12/11 10:16:28;;;;;;;8.90;4.10;;;;;;;4.97;100.00;97564.74;107690;1298;22418;-48
2023/12/11 10:18:53;;;;;;;10.20;5.00;;;;;;;5.01;100.00;97565.58;107681;1309;22244;-49
2023/12/11 10:21:19;;;;;;;12.40;4.30;;;;;;;5.06;100.00;97569.58;107697;1309;23099;-51
2023/12/11 10:24:00;;;;;;;9.30;4.60;;;;;;;5.09;100.00;97571.67;106902;1309;22611;-48
2023/12/11 10:26:26;;;;;;;6.30;3.70;;;;;;;5.11;100.00;97566.52;107643;1309;22267;-50
2023/12/11 10:28:51;;;;;;;8.50;4.30;;;;;;;5.08;100.00;97568.43;107700;1309;22346;-52
2023/12/11 10:31:16;;;;;;;12.10;4.60;;;;;;;5.05;100.00;97561.50;107696;1309;22320;-50
2023/12/11 10:33:51;;;;;;;7.90;4.30;;;;;;;5.11;100.00;97559.25;107640;1304;23099;-52
2023/12/11 10:36:17;;;;;;;9.40;4.40;;;;;;;5.19;100.00;97552.14;107717;1309;23013;-47
2023/12/11 10:38:43;;;;;;;9.60;4.60;;;;;;;5.26;100.00;97553.95;107733;1308;22222;-51
2023/12/11 10:41:23;;;;;;;10.90;4.30;;;;;;;5.33;100.00;97556.14;107713;1309;22263;-47
2023/12/11 10:43:48;;;;;;;13.00;4.80;;;;;;;5.47;100.00;97558.25;107729;1309;22304;-51
2023/12/11 10:46:14;;;;;;;10.40;4.70;;;;;;;5.61;100.00;97555.79;107735;1309;22318;-50
2023/12/11 10:48:40;;;;;;;9.30;4.40;;;;;;;5.78;100.00;97551.10;107718;1309;22263;-51
2023/12/11 10:51:06;;;;;;;8.10;4.20;;;;;;;5.87;100.00;97550.20;107751;1302;22268;-50
2023/12/11 10:53:35;;;;;;;11.60;4.80;;;;;;;5.91;100.00;97545.23;107595;1301;22544;-48
2023/12/11 10:56:02;;;;;;;9.30;4.10;;;;;;;5.87;100.00;97547.17;107820;1298;22454;-51
2023/12/11 10:58:28;;;;;;;12.70;4.60;;;;;;;5.89;100.00;97546.23;107849;1302;22476;-47
2023/12/11 11:00:55;;;;;;;10.50;4.40;;;;;;;5.91;100.00;97544.68;107787;1308;22288;-48
2023/12/11 11:03:21;;;;;;;11.30;4.70;;;;;;;5.92;100.00;97544.98;107826;1301;23223;-47
2023/12/11 11:05:48;;;;;;;9.30;4.90;;;;;;;5.95;100.00;97542.15;107636;1299;22348;-50
2023/12/11 11:08:31;;;;;;;9.70;4.20;;;;;;;6.01;100.00;97546.31;107799;1301;22248;-52
2023/12/11 11:11:24;;;;;;;11.50;4.80;;;;;;;6.14;100.00;97543.94;107806;1305;22233;-49
2023/12/11 11:14:20;;;;;;;8.60;4.30;;;;;;;6.23;100.00;97539.02;107344;1301;22198;-51
2023/12/11 11:16:53;;;;;;;9.80;4.70;;;;;;;6.29;100.00;97541.91;107797;1294;22483;-49
2023/12/11 11:19:18;;;;;;;7.70;3.70;;;;;;;6.35;100.00;97543.27;107066;1305;22566;-47
2023/12/11 11:22:00;;;;;;;10.20;4.20;;;;;;;6.47;100.00;97540.38;107225;1308;22308;-49
2023/12/11 11:24:26;;;;;;;9.60;4.80;;;;;;;6.54;100.00;97536.93;107815;1301;22234;-47
2023/12/11 11:26:52;;;;;;;9.70;4.30;;;;;;;6.64;99.90;97531.59;107567;1308;22313;-48
2023/12/11 11:29:44;;;;;;;8.40;4.40;;;;;;;6.73;99.96;97531.33;107863;1301;22901;-46
2023/12/11 11:32:10;;;;;;;7.40;3.50;;;;;;;6.85;99.77;97526.32;107720;1308;22266;-46
2023/12/11 11:34:43;;;;;;;10.30;4.00;;;;;;;6.97;99.19;97524.65;107847;1308;22244;-49
2023/12/11 11:37:14;;;;;;;9.50;3.70;;;;;;;7.05;98.66;97521.33;107812;1301;22217;-53
2023/12/11 11:39:59;;;;;;;7.90;3.70;;;;;;;7.07;97.51;97523.40;107034;1304;22685;-47
2023/12/11 11:42:26;;;;;;;7.60;3.70;;;;;;;7.16;97.11;97518.28;107872;1300;23290;-49
2023/12/11 11:44:59;;;;;;;7.10;3.60;;;;;;;7.17;96.71;97519.58;107824;1301;22272;-50
2023/12/11 11:47:28;;;;;;;9.50;4.00;;;;;;;7.16;96.69;97522.27;107839;1301;22940;-48
2023/12/11 11:50:02;;;;;;;10.70;4.70;;;;;;;7.13;96.76;97518.84;107851;1301;22504;-52
2023/12/11 11:52:28;;;;;;;9.30;4.10;;;;;;;7.05;96.61;97518.02;107801;1308;22492;-52
2023/12/11 11:55:07;;;;;;;7.30;4.30;;;;;;;6.92;96.13;97516.27;107642;1309;22285;-49
2023/12/11 11:57:33;;;;;;;11.40;4.40;;;;;;;6.87;96.56;97511.91;107847;1301;23207;-51
2023/12/11 11:59:59;;;;;;;10.50;3.60;;;;;;;6.85;96.73;97516.75;107474;1301;23050;-49
2023/12/11 12:02:26;;;;;;;9.20;3.90;;;;;;;6.81;96.46;97512.86;107806;1308;22301;-49
2023/12/11 12:04:51;;;;;;;10.60;4.90;;;;;;;6.79;96.78;97509.32;107829;1308;22285;-51
2023/12/11 12:07:17;;;;;;;15.70;5.50;;;;;;;6.75;96.76;97504.34;107789;1301;22295;-48
2023/12/11 12:09:45;;;;;;;12.60;5.20;;;;;;;6.76;96.90;97500.48;107833;1305;22320;-51
2023/12/11 12:12:14;;;;;;;13.30;5.10;;;;;;;6.76;96.91;97497.33;107786;1308;23594;-51
2023/12/11 12:14:40;;;;;;;9.20;4.90;;;;;;;6.73;96.68;97501.20;107237;1306;22585;-48
2023/12/11 12:17:10;;;;;;;14.00;6.30;;;;;;;6.75;97.31;97504.16;107197;1308;22381;-49
2023/12/11 12:19:35;;;;;;;15.30;6.10;;;;;;;6.78;97.33;97500.88;107265;1300;22451;-52
2023/12/11 12:22:02;;;;;;;14.40;4.80;;;;;;;6.77;97.36;97495.38;107514;1308;22575;-48
2023/12/11 12:24:28;;;;;;;14.60;4.40;;;;;;;6.72;97.31;97495.34;107828;1304;22323;-49
2023/12/11 12:27:02;;;;;;;10.40;4.80;;;;;;;6.71;97.49;97495.59;107538;1295;22502;-51
2023/12/11 12:29:31;;;;;;;7.40;4.10;;;;;;;6.67;97.62;97489.97;107829;1305;22538;-49
2023/12/11 12:31:57;;;;;;;10.60;4.40;;;;;;;6.61;97.81;97490.52;107773;1301;22506;-50
2023/12/11 12:34:24;;;;;;;10.90;4.30;;;;;;;6.58;97.85;97492.31;107805;1302;22258;-50
2023/12/11 12:36:53;;;;;;;9.40;4.10;;;;;;;6.58;97.93;97489.89;107213;1308;22562;-50
2023/12/11 12:39:20;;;;;;;10.50;4.20;;;;;;;6.58;98.08;97495.98;107773;1302;22269;-49
2023/12/11 12:41:48;;;;;;;13.00;5.20;;;;;;;6.56;98.12;97495.20;107854;1305;22306;-50
2023/12/11 12:44:14;;;;;;;9.90;4.80;;;;;;;6.49;98.22;97493.04;106977;1308;22565;-51
2023/12/11 12:46:41;;;;;;;10.80;4.20;;;;;;;6.48;98.42;97493.67;107627;1306;22588;-50
2023/12/11 12:49:08;;;;;;;7.50;3.50;;;;;;;6.47;98.57;97493.23;107083;1308;22576;-50
2023/12/11 12:51:52;;;;;;;13.20;4.90;;;;;;;6.44;98.63;97492.89;107482;1308;25603;-48
2023/12/11 12:54:19;;;;;;;13.80;4.80;;;;;;;6.42;98.78;97494.94;107463;1308;23105;-51
2023/12/11 12:56:52;;;;;;;11.10;4.60;;;;;;;6.43;99.03;97496.74;107664;1308;22366;-50
2023/12/11 12:59:17;;;;;;;7.80;4.40;;;;;;;6.43;99.04;97499.70;107824;1307;22944;-49
2023/12/11 13:01:42;;;;;;;7.90;4.40;;;;;;;6.44;99.06;97498.93;107755;1302;22426;-51
2023/12/11 13:04:10;;;;;;;16.30;6.40;;;;;;;6.48;99.05;97500.28;107826;1286;22260;-48
2023/12/11 13:06:36;;;;;;;10.10;5.00;;;;;;;6.50;99.01;97497.54;107825;1308;23069;-49
2023/12/11 13:09:03;;;;;;;10.40;4.80;;;;;;;6.51;99.01;97500.21;107754;1305;23084;-49
2023/12/11 13:11:50;;;;;;;8.80;4.50;;;;;;;6.52;99.00;97500.19;107626;1304;22273;-52
2023/12/11 13:14:16;;;;;;;11.80;4.60;;;;;;;6.53;99.14;97499.91;107795;1308;23024;-51
2023/12/11 13:16:43;;;;;;;7.80;4.10;;;;;;;6.54;99.29;97501.27;107764;1308;22321;-51
2023/12/11 13:19:10;;;;;;;9.00;4.80;;;;;;;6.55;99.14;97502.42;107791;1308;22268;-51
2023/12/11 13:21:35;;;;;;;12.80;5.10;;;;;;;6.56;99.20;97502.00;107260;1308;22278;-52
2023/12/11 13:24:01;;;;;;;8.70;4.20;;;;;;;6.59;99.14;97504.92;107811;1301;23215;-50
2023/12/11 13:26:28;;;;;;;9.80;5.50;;;;;;;6.59;99.05;97502.70;107786;1301;22314;-51
2023/12/11 13:28:53;;;;;;;15.90;5.90;;;;;;;6.60;99.18;97502.95;107818;1308;22251;-51
2023/12/11 13:31:19;;;;;;;12.30;4.90;;;;;;;6.60;99.12;97497.58;107830;1308;22369;-50
2023/12/11 13:33:44;;;;;;;14.20;4.40;;;;;;;6.61;99.14;97498.88;107817;1301;22142;-52
2023/12/11 13:36:14;;;;;;;12.40;4.70;;;;;;;6.64;99.17;97497.98;107769;1308;22315;-53
2023/12/11 13:38:41;;;;;;;15.30;5.00;;;;;;;6.67;99.24;97494.66;107799;1308;22321;-50
2023/12/11 13:41:06;;;;;;;16.40;5.30;;;;;;;6.66;99.00;97495.39;107808;1308;22987;-51
2023/12/11 13:43:32;;;;;;;19.50;6.90;;;;;;;6.54;98.80;97495.13;107789;1301;22258;-50
2023/12/11 13:45:59;;;;;;;15.20;5.90;;;;;;;6.55;98.86;97495.11;107734;1302;22513;-51
2023/12/11 13:48:25;;;;;;;14.50;5.60;;;;;;;6.55;98.90;97499.46;107802;1308;23092;-52
2023/12/11 13:50:50;;;;;;;14.40;5.00;;;;;;;6.57;98.89;97502.80;107789;1308;22203;-52
2023/12/11 13:53:16;;;;;;;13.70;5.70;;;;;;;6.58;98.83;97501.15;107739;1308;23264;-52
2023/12/11 13:55:41;;;;;;;12.10;5.90;;;;;;;6.60;98.79;97498.10;107816;1308;22463;-50
2023/12/11 13:58:06;;;;;;;11.00;5.50;;;;;;;6.57;98.57;97495.67;107794;1308;23312;-49
2023/12/11 14:00:32;;;;;;;12.60;5.20;;;;;;;6.56;98.42;97502.17;107778;1308;22737;-52